sensor_id;sensor_type;location;lat;lon;timestamp;temperature;humidity
15296;DHT22;7749;49.964;7.890;2023-01-20T00:01:22;0.00;99.90
15296;DHT22;7749;49.964;7.890;2023-01-20T00:03:52;0.00;99.90
15296;DHT22;7749;49.964;7.890;2023-01-20T00:06:22;0.00;99.90
15296;DHT22;7749;49.964;7.890;2023-01-20T00:08:50;0.00;99.90
15296;DHT22;7749;49.964;7.890;2023-01-20T00:11:19;0.00;99.90
15296;DHT22;7749;49.964;7.890;2023-01-20T00:13:47;0.00;99.90
15296;DHT22;7749;49.964;7.890;2023-01-20T00:16:14;0.00;99.90
15296;DHT22;7749;49.964;7.890;2023-01-20T00:18:42;0.00;99.90
15296;DHT22;7749;49.964;7.890;2023-01-20T00:21:12;0.10;99.90
15296;DHT22;7749;49.964;7.890;2023-01-20T00:23:40;-0.10;99.90
15296;DHT22;7749;49.964;7.890;2023-01-20T00:26:13;-0.10;99.90
15296;DHT22;7749;49.964;7.890;2023-01-20T00:28:43;0.00;99.90
15296;DHT22;7749;49.964;7.890;2023-01-20T00:31:19;0.00;99.90
15296;DHT22;7749;49.964;7.890;2023-01-20T00:33:48;0.00;99.90
15296;DHT22;7749;49.964;7.890;2023-01-20T00:36:18;0.00;99.90
15296;DHT22;7749;49.964;7.890;2023-01-20T00:38:46;-0.10;99.90
15296;DHT22;7749;49.964;7.890;2023-01-20T00:41:14;-0.10;99.90
15296;DHT22;7749;49.964;7.890;2023-01-20T00:43:42;0.00;99.90
15296;DHT22;7749;49.964;7.890;2023-01-20T00:46:11;0.00;99.90
15296;DHT22;7749;49.964;7.890;2023-01-20T00:48:39;0.00;99.90
15296;DHT22;7749;49.964;7.890;2023-01-20T00:51:08;0.00;99.90
15296;DHT22;7749;49.964;7.890;2023-01-20T00:53:36;0.00;99.90
15296;DHT22;7749;49.964;7.890;2023-01-20T00:56:04;0.00;99.90
15296;DHT22;7749;49.964;7.890;2023-01-20T00:58:31;0.00;99.90
15296;DHT22;7749;49.964;7.890;2023-01-20T01:00:59;0.00;99.90
15296;DHT22;7749;49.964;7.890;2023-01-20T01:03:28;0.00;99.90
15296;DHT22;7749;49.964;7.890;2023-01-20T01:06:11;-0.10;99.90
15296;DHT22;7749;49.964;7.890;2023-01-20T01:08:40;-0.10;99.90
15296;DHT22;7749;49.964;7.890;2023-01-20T01:11:09;-0.20;99.90
15296;DHT22;7749;49.964;7.890;2023-01-20T01:13:37;-0.20;99.90
15296;DHT22;7749;49.964;7.890;2023-01-20T01:16:10;-0.20;99.90
15296;DHT22;7749;49.964;7.890;2023-01-20T01:18:39;-0.20;99.90
15296;DHT22;7749;49.964;7.890;2023-01-20T01:21:12;-0.20;99.90
15296;DHT22;7749;49.964;7.890;2023-01-20T01:23:41;-0.20;99.90
15296;DHT22;7749;49.964;7.890;2023-01-20T01:26:09;-0.20;99.90
15296;DHT22;7749;49.964;7.890;2023-01-20T01:28:37;-0.20;99.90
15296;DHT22;7749;49.964;7.890;2023-01-20T01:31:07;-0.20;99.90
15296;DHT22;7749;49.964;7.890;2023-01-20T01:33:35;-0.20;99.90
15296;DHT22;7749;49.964;7.890;2023-01-20T01:36:03;-0.20;99.90
15296;DHT22;7749;49.964;7.890;2023-01-20T01:38:31;-0.20;99.90
15296;DHT22;7749;49.964;7.890;2023-01-20T01:40:59;-0.20;99.90
15296;DHT22;7749;49.964;7.890;2023-01-20T01:43:32;-0.20;99.90
15296;DHT22;7749;49.964;7.890;2023-01-20T01:46:00;-0.20;99.90
15296;DHT22;7749;49.964;7.890;2023-01-20T01:48:35;-0.10;99.90
15296;DHT22;7749;49.964;7.890;2023-01-20T01:51:19;0.00;99.90
15296;DHT22;7749;49.964;7.890;2023-01-20T01:53:55;0.00;99.90
15296;DHT22;7749;49.964;7.890;2023-01-20T01:56:26;0.00;99.90
15296;DHT22;7749;49.964;7.890;2023-01-20T01:58:59;0.00;99.90
15296;DHT22;7749;49.964;7.890;2023-01-20T02:01:28;0.10;99.90
15296;DHT22;7749;49.964;7.890;2023-01-20T02:04:18;0.10;99.90
15296;DHT22;7749;49.964;7.890;2023-01-20T02:06:51;0.20;99.90
15296;DHT22;7749;49.964;7.890;2023-01-20T02:09:21;0.20;99.90
15296;DHT22;7749;49.964;7.890;2023-01-20T02:11:52;0.10;99.90
15296;DHT22;7749;49.964;7.890;2023-01-20T02:14:25;0.10;99.90
15296;DHT22;7749;49.964;7.890;2023-01-20T02:22:44;-0.10;99.90
15296;DHT22;7749;49.964;7.890;2023-01-20T02:33:47;-0.30;99.90
15296;DHT22;7749;49.964;7.890;2023-01-20T02:36:44;-0.30;99.90
15296;DHT22;7749;49.964;7.890;2023-01-20T02:42:29;-0.20;99.90
15296;DHT22;7749;49.964;7.890;2023-01-20T02:45:08;-0.20;99.90
15296;DHT22;7749;49.964;7.890;2023-01-20T02:47:45;-0.20;99.90
15296;DHT22;7749;49.964;7.890;2023-01-20T02:50:36;0.00;99.90
15296;DHT22;7749;49.964;7.890;2023-01-20T02:53:06;0.20;99.90
15296;DHT22;7749;49.964;7.890;2023-01-20T02:55:43;0.30;99.90
15296;DHT22;7749;49.964;7.890;2023-01-20T02:58:18;0.40;99.90
15296;DHT22;7749;49.964;7.890;2023-01-20T03:00:51;0.40;99.90
15296;DHT22;7749;49.964;7.890;2023-01-20T03:03:26;0.30;99.90
15296;DHT22;7749;49.964;7.890;2023-01-20T03:05:58;0.20;99.90
15296;DHT22;7749;49.964;7.890;2023-01-20T03:08:28;0.10;99.90
15296;DHT22;7749;49.964;7.890;2023-01-20T03:11:03;0.10;99.90
15296;DHT22;7749;49.964;7.890;2023-01-20T03:16:17;0.10;99.90
15296;DHT22;7749;49.964;7.890;2023-01-20T03:18:48;0.00;99.90
15296;DHT22;7749;49.964;7.890;2023-01-20T03:21:17;0.10;99.90
15296;DHT22;7749;49.964;7.890;2023-01-20T03:23:47;0.10;99.90
15296;DHT22;7749;49.964;7.890;2023-01-20T03:26:18;0.10;99.90
15296;DHT22;7749;49.964;7.890;2023-01-20T03:28:46;0.10;99.90
15296;DHT22;7749;49.964;7.890;2023-01-20T03:31:28;0.00;99.90
15296;DHT22;7749;49.964;7.890;2023-01-20T03:33:59;0.10;99.90
15296;DHT22;7749;49.964;7.890;2023-01-20T03:36:28;0.10;99.90
15296;DHT22;7749;49.964;7.890;2023-01-20T03:38:57;0.10;99.90
15296;DHT22;7749;49.964;7.890;2023-01-20T03:47:52;0.10;99.90
15296;DHT22;7749;49.964;7.890;2023-01-20T03:50:46;0.20;99.90
15296;DHT22;7749;49.964;7.890;2023-01-20T03:53:38;0.20;99.90
15296;DHT22;7749;49.964;7.890;2023-01-20T03:56:27;0.20;99.90
15296;DHT22;7749;49.964;7.890;2023-01-20T03:59:00;0.10;99.90
15296;DHT22;7749;49.964;7.890;2023-01-20T04:01:35;0.20;99.90
15296;DHT22;7749;49.964;7.890;2023-01-20T04:04:08;0.20;99.90
15296;DHT22;7749;49.964;7.890;2023-01-20T04:06:38;0.20;99.90
15296;DHT22;7749;49.964;7.890;2023-01-20T04:09:10;0.20;99.90
15296;DHT22;7749;49.964;7.890;2023-01-20T04:11:39;0.20;99.90
15296;DHT22;7749;49.964;7.890;2023-01-20T04:14:08;0.20;99.90
15296;DHT22;7749;49.964;7.890;2023-01-20T04:16:36;0.30;99.90
15296;DHT22;7749;49.964;7.890;2023-01-20T04:19:04;0.30;99.90
15296;DHT22;7749;49.964;7.890;2023-01-20T04:21:39;0.40;99.90
15296;DHT22;7749;49.964;7.890;2023-01-20T04:26:50;0.40;99.90
15296;DHT22;7749;49.964;7.890;2023-01-20T04:29:18;0.40;99.90
15296;DHT22;7749;49.964;7.890;2023-01-20T04:31:48;0.50;99.90
15296;DHT22;7749;49.964;7.890;2023-01-20T04:34:16;0.50;99.90
15296;DHT22;7749;49.964;7.890;2023-01-20T04:36:44;0.40;99.90
15296;DHT22;7749;49.964;7.890;2023-01-20T04:39:14;0.40;99.90
15296;DHT22;7749;49.964;7.890;2023-01-20T04:41:42;0.40;99.90
15296;DHT22;7749;49.964;7.890;2023-01-20T04:44:10;0.40;99.90
15296;DHT22;7749;49.964;7.890;2023-01-20T04:46:37;0.30;99.90
15296;DHT22;7749;49.964;7.890;2023-01-20T04:49:05;0.30;99.90
15296;DHT22;7749;49.964;7.890;2023-01-20T04:51:33;0.30;99.90
15296;DHT22;7749;49.964;7.890;2023-01-20T04:54:00;0.20;99.90
15296;DHT22;7749;49.964;7.890;2023-01-20T04:56:28;0.20;99.90
15296;DHT22;7749;49.964;7.890;2023-01-20T04:58:55;0.20;99.90
15296;DHT22;7749;49.964;7.890;2023-01-20T05:01:23;0.30;99.90
15296;DHT22;7749;49.964;7.890;2023-01-20T05:03:51;0.20;99.90
15296;DHT22;7749;49.964;7.890;2023-01-20T05:06:19;0.20;99.90
15296;DHT22;7749;49.964;7.890;2023-01-20T05:08:46;0.20;99.90
15296;DHT22;7749;49.964;7.890;2023-01-20T05:11:14;0.10;99.90
15296;DHT22;7749;49.964;7.890;2023-01-20T05:13:42;0.10;99.90
15296;DHT22;7749;49.964;7.890;2023-01-20T05:16:09;0.10;99.90
15296;DHT22;7749;49.964;7.890;2023-01-20T05:18:37;0.10;99.90
15296;DHT22;7749;49.964;7.890;2023-01-20T05:21:06;0.10;99.90
15296;DHT22;7749;49.964;7.890;2023-01-20T05:23:35;0.20;99.90
15296;DHT22;7749;49.964;7.890;2023-01-20T05:26:02;0.20;99.90
15296;DHT22;7749;49.964;7.890;2023-01-20T05:28:30;0.20;99.90
15296;DHT22;7749;49.964;7.890;2023-01-20T05:30:58;0.20;99.90
15296;DHT22;7749;49.964;7.890;2023-01-20T05:33:26;0.20;99.90
15296;DHT22;7749;49.964;7.890;2023-01-20T05:35:53;0.20;99.90
15296;DHT22;7749;49.964;7.890;2023-01-20T05:38:22;0.20;99.90
15296;DHT22;7749;49.964;7.890;2023-01-20T05:40:50;0.20;99.90
15296;DHT22;7749;49.964;7.890;2023-01-20T05:43:25;0.30;99.90
15296;DHT22;7749;49.964;7.890;2023-01-20T05:45:53;0.30;99.90
15296;DHT22;7749;49.964;7.890;2023-01-20T05:48:21;0.30;99.90
15296;DHT22;7749;49.964;7.890;2023-01-20T05:50:49;0.40;99.90
15296;DHT22;7749;49.964;7.890;2023-01-20T05:53:18;0.30;99.90
15296;DHT22;7749;49.964;7.890;2023-01-20T05:55:46;0.40;99.90
15296;DHT22;7749;49.964;7.890;2023-01-20T05:58:14;0.40;99.90
15296;DHT22;7749;49.964;7.890;2023-01-20T06:00:43;0.40;99.90
15296;DHT22;7749;49.964;7.890;2023-01-20T06:03:13;0.40;99.90
15296;DHT22;7749;49.964;7.890;2023-01-20T06:05:41;0.50;99.90
15296;DHT22;7749;49.964;7.890;2023-01-20T06:08:08;0.50;99.90
15296;DHT22;7749;49.964;7.890;2023-01-20T06:10:36;0.50;99.90
15296;DHT22;7749;49.964;7.890;2023-01-20T06:13:04;0.50;99.90
15296;DHT22;7749;49.964;7.890;2023-01-20T06:15:32;0.50;99.90
15296;DHT22;7749;49.964;7.890;2023-01-20T06:17:59;0.50;99.90
15296;DHT22;7749;49.964;7.890;2023-01-20T06:20:28;0.50;99.90
15296;DHT22;7749;49.964;7.890;2023-01-20T06:22:56;0.50;99.90
15296;DHT22;7749;49.964;7.890;2023-01-20T06:25:24;0.50;99.90
15296;DHT22;7749;49.964;7.890;2023-01-20T06:27:52;0.50;99.90
15296;DHT22;7749;49.964;7.890;2023-01-20T06:30:19;0.50;99.90
15296;DHT22;7749;49.964;7.890;2023-01-20T06:32:47;0.60;99.90
15296;DHT22;7749;49.964;7.890;2023-01-20T06:35:15;0.50;99.90
15296;DHT22;7749;49.964;7.890;2023-01-20T06:37:43;0.60;99.90
15296;DHT22;7749;49.964;7.890;2023-01-20T06:40:14;0.60;99.90
15296;DHT22;7749;49.964;7.890;2023-01-20T06:42:42;0.60;99.90
15296;DHT22;7749;49.964;7.890;2023-01-20T06:45:10;0.70;99.90
15296;DHT22;7749;49.964;7.890;2023-01-20T06:47:38;0.70;99.90
15296;DHT22;7749;49.964;7.890;2023-01-20T06:50:06;0.80;99.90
15296;DHT22;7749;49.964;7.890;2023-01-20T06:52:34;0.70;99.90
15296;DHT22;7749;49.964;7.890;2023-01-20T06:55:02;0.60;99.90
15296;DHT22;7749;49.964;7.890;2023-01-20T06:57:30;0.60;99.90
15296;DHT22;7749;49.964;7.890;2023-01-20T06:59:57;0.50;99.90
15296;DHT22;7749;49.964;7.890;2023-01-20T07:02:25;0.50;99.90
15296;DHT22;7749;49.964;7.890;2023-01-20T07:04:53;0.40;99.90
15296;DHT22;7749;49.964;7.890;2023-01-20T07:07:21;0.40;99.90
15296;DHT22;7749;49.964;7.890;2023-01-20T07:09:48;0.40;99.90
15296;DHT22;7749;49.964;7.890;2023-01-20T07:12:20;0.40;99.90
15296;DHT22;7749;49.964;7.890;2023-01-20T07:14:47;0.40;99.90
15296;DHT22;7749;49.964;7.890;2023-01-20T07:17:15;0.50;99.90
15296;DHT22;7749;49.964;7.890;2023-01-20T07:19:43;0.40;99.90
15296;DHT22;7749;49.964;7.890;2023-01-20T07:22:10;0.40;99.90
15296;DHT22;7749;49.964;7.890;2023-01-20T07:24:38;0.40;99.90
15296;DHT22;7749;49.964;7.890;2023-01-20T07:27:06;0.40;99.90
15296;DHT22;7749;49.964;7.890;2023-01-20T07:29:33;0.30;99.90
15296;DHT22;7749;49.964;7.890;2023-01-20T07:32:06;0.30;99.90
15296;DHT22;7749;49.964;7.890;2023-01-20T07:34:36;0.30;99.90
15296;DHT22;7749;49.964;7.890;2023-01-20T07:37:04;0.20;99.90
15296;DHT22;7749;49.964;7.890;2023-01-20T07:39:31;0.20;99.90
15296;DHT22;7749;49.964;7.890;2023-01-20T07:42:02;0.20;99.90
15296;DHT22;7749;49.964;7.890;2023-01-20T07:44:31;0.20;99.90
15296;DHT22;7749;49.964;7.890;2023-01-20T07:46:59;0.20;99.90
15296;DHT22;7749;49.964;7.890;2023-01-20T07:49:26;0.30;99.90
15296;DHT22;7749;49.964;7.890;2023-01-20T07:51:55;0.30;99.90
15296;DHT22;7749;49.964;7.890;2023-01-20T07:54:23;0.30;99.90
15296;DHT22;7749;49.964;7.890;2023-01-20T07:56:51;0.40;99.90
15296;DHT22;7749;49.964;7.890;2023-01-20T07:59:19;0.50;99.90
15296;DHT22;7749;49.964;7.890;2023-01-20T08:01:46;0.50;99.90
15296;DHT22;7749;49.964;7.890;2023-01-20T08:04:14;0.50;99.90
15296;DHT22;7749;49.964;7.890;2023-01-20T08:06:42;0.60;99.90
15296;DHT22;7749;49.964;7.890;2023-01-20T08:09:09;0.70;99.90
15296;DHT22;7749;49.964;7.890;2023-01-20T08:11:38;0.80;99.90
15296;DHT22;7749;49.964;7.890;2023-01-20T08:14:06;0.90;99.90
15296;DHT22;7749;49.964;7.890;2023-01-20T08:16:34;1.00;99.90
15296;DHT22;7749;49.964;7.890;2023-01-20T08:19:02;1.10;99.90
15296;DHT22;7749;49.964;7.890;2023-01-20T08:21:31;1.30;99.90
15296;DHT22;7749;49.964;7.890;2023-01-20T08:24:00;1.30;99.90
15296;DHT22;7749;49.964;7.890;2023-01-20T08:26:29;1.50;99.90
15296;DHT22;7749;49.964;7.890;2023-01-20T08:29:02;1.60;99.90
15296;DHT22;7749;49.964;7.890;2023-01-20T08:31:30;1.70;99.90
15296;DHT22;7749;49.964;7.890;2023-01-20T08:33:58;1.80;99.90
15296;DHT22;7749;49.964;7.890;2023-01-20T08:36:29;1.90;99.90
15296;DHT22;7749;49.964;7.890;2023-01-20T08:38:59;1.90;99.90
15296;DHT22;7749;49.964;7.890;2023-01-20T08:41:31;2.10;99.90
15296;DHT22;7749;49.964;7.890;2023-01-20T08:44:00;2.10;99.90
15296;DHT22;7749;49.964;7.890;2023-01-20T08:46:29;2.20;99.90
15296;DHT22;7749;49.964;7.890;2023-01-20T08:48:57;2.40;99.90
15296;DHT22;7749;49.964;7.890;2023-01-20T08:51:28;2.40;99.90
15296;DHT22;7749;49.964;7.890;2023-01-20T08:53:56;2.50;99.90
15296;DHT22;7749;49.964;7.890;2023-01-20T08:56:24;2.50;99.90
15296;DHT22;7749;49.964;7.890;2023-01-20T08:58:53;2.60;99.90
15296;DHT22;7749;49.964;7.890;2023-01-20T09:01:24;2.70;99.90
15296;DHT22;7749;49.964;7.890;2023-01-20T09:03:52;2.90;99.90
15296;DHT22;7749;49.964;7.890;2023-01-20T09:06:48;3.00;97.60
15296;DHT22;7749;49.964;7.890;2023-01-20T09:09:21;3.00;92.80
15296;DHT22;7749;49.964;7.890;2023-01-20T09:11:49;3.10;89.90
15296;DHT22;7749;49.964;7.890;2023-01-20T09:14:18;3.00;74.90
15296;DHT22;7749;49.964;7.890;2023-01-20T09:16:47;2.90;82.30
15296;DHT22;7749;49.964;7.890;2023-01-20T09:19:15;2.90;94.90
15296;DHT22;7749;49.964;7.890;2023-01-20T09:21:43;2.80;96.00
15296;DHT22;7749;49.964;7.890;2023-01-20T09:24:11;2.80;95.80
15296;DHT22;7749;49.964;7.890;2023-01-20T09:26:38;2.70;98.20
15296;DHT22;7749;49.964;7.890;2023-01-20T09:29:09;2.80;98.70
15296;DHT22;7749;49.964;7.890;2023-01-20T09:31:39;2.90;98.40
15296;DHT22;7749;49.964;7.890;2023-01-20T09:34:14;3.00;95.60
15296;DHT22;7749;49.964;7.890;2023-01-20T09:36:54;3.10;81.10
15296;DHT22;7749;49.964;7.890;2023-01-20T09:39:23;3.10;82.40
15296;DHT22;7749;49.964;7.890;2023-01-20T09:43:10;3.10;66.00
15296;DHT22;7749;49.964;7.890;2023-01-20T09:46:00;3.10;73.10
15296;DHT22;7749;49.964;7.890;2023-01-20T09:52:00;3.00;85.10
15296;DHT22;7749;49.964;7.890;2023-01-20T09:54:57;3.00;91.90
15296;DHT22;7749;49.964;7.890;2023-01-20T09:57:30;3.10;79.10
15296;DHT22;7749;49.964;7.890;2023-01-20T10:00:04;3.20;85.30
15296;DHT22;7749;49.964;7.890;2023-01-20T10:02:35;3.40;49.10
15296;DHT22;7749;49.964;7.890;2023-01-20T10:05:11;3.50;31.70
15296;DHT22;7749;49.964;7.890;2023-01-20T10:07:48;3.80;17.10
15296;DHT22;7749;49.964;7.890;2023-01-20T10:10:25;3.90;1.00
15296;DHT22;7749;49.964;7.890;2023-01-20T10:13:19;3.90;1.00
15296;DHT22;7749;49.964;7.890;2023-01-20T10:15:55;3.90;1.00
15296;DHT22;7749;49.964;7.890;2023-01-20T10:18:38;4.00;1.00
15296;DHT22;7749;49.964;7.890;2023-01-20T10:21:20;4.10;1.00
15296;DHT22;7749;49.964;7.890;2023-01-20T10:24:02;4.20;1.00
15296;DHT22;7749;49.964;7.890;2023-01-20T10:26:55;4.30;1.00
15296;DHT22;7749;49.964;7.890;2023-01-20T10:29:35;4.40;1.00
15296;DHT22;7749;49.964;7.890;2023-01-20T10:32:11;4.60;1.00
15296;DHT22;7749;49.964;7.890;2023-01-20T10:34:44;4.80;1.00
15296;DHT22;7749;49.964;7.890;2023-01-20T10:37:15;4.90;1.00
15296;DHT22;7749;49.964;7.890;2023-01-20T10:42:20;4.90;1.00
15296;DHT22;7749;49.964;7.890;2023-01-20T10:44:49;5.10;1.00
15296;DHT22;7749;49.964;7.890;2023-01-20T10:47:37;5.40;1.00
15296;DHT22;7749;49.964;7.890;2023-01-20T10:50:27;5.80;1.00
15296;DHT22;7749;49.964;7.890;2023-01-20T10:56:17;9.60;1.00
15296;DHT22;7749;49.964;7.890;2023-01-20T10:58:47;11.80;1.00
15296;DHT22;7749;49.964;7.890;2023-01-20T11:01:17;13.30;99.90
15296;DHT22;7749;49.964;7.890;2023-01-20T11:03:50;12.90;99.90
15296;DHT22;7749;49.964;7.890;2023-01-20T11:06:24;11.50;99.90
15296;DHT22;7749;49.964;7.890;2023-01-20T11:08:54;10.00;1.00
15296;DHT22;7749;49.964;7.890;2023-01-20T11:11:24;9.20;1.00
15296;DHT22;7749;49.964;7.890;2023-01-20T11:13:52;8.50;99.90
15296;DHT22;7749;49.964;7.890;2023-01-20T11:16:25;8.90;1.00
15296;DHT22;7749;49.964;7.890;2023-01-20T11:19:00;10.10;1.00
15296;DHT22;7749;49.964;7.890;2023-01-20T11:21:33;11.70;99.90
15296;DHT22;7749;49.964;7.890;2023-01-20T11:24:32;12.50;1.00
15296;DHT22;7749;49.964;7.890;2023-01-20T11:27:12;12.00;1.00
15296;DHT22;7749;49.964;7.890;2023-01-20T11:30:38;11.90;1.00
15296;DHT22;7749;49.964;7.890;2023-01-20T11:33:30;12.00;1.00
15296;DHT22;7749;49.964;7.890;2023-01-20T11:36:04;12.20;1.00
15296;DHT22;7749;49.964;7.890;2023-01-20T11:38:51;12.30;1.00
15296;DHT22;7749;49.964;7.890;2023-01-20T11:41:44;12.30;1.00
15296;DHT22;7749;49.964;7.890;2023-01-20T11:44:18;11.10;1.00
15296;DHT22;7749;49.964;7.890;2023-01-20T11:46:46;10.80;1.00
15296;DHT22;7749;49.964;7.890;2023-01-20T11:49:15;10.60;11.90
15296;DHT22;7749;49.964;7.890;2023-01-20T11:51:54;10.50;51.10
15296;DHT22;7749;49.964;7.890;2023-01-20T11:54:25;10.50;1.00
15296;DHT22;7749;49.964;7.890;2023-01-20T11:56:59;9.80;99.90
15296;DHT22;7749;49.964;7.890;2023-01-20T11:59:33;9.20;99.90
15296;DHT22;7749;49.964;7.890;2023-01-20T12:05:14;10.10;99.90
15296;DHT22;7749;49.964;7.890;2023-01-20T12:07:47;10.90;45.40
15296;DHT22;7749;49.964;7.890;2023-01-20T12:10:19;11.60;1.00
15296;DHT22;7749;49.964;7.890;2023-01-20T12:12:58;12.10;1.00
15296;DHT22;7749;49.964;7.890;2023-01-20T12:15:32;11.90;1.00
15296;DHT22;7749;49.964;7.890;2023-01-20T12:18:05;10.70;1.00
15296;DHT22;7749;49.964;7.890;2023-01-20T12:20:49;9.90;1.70
15296;DHT22;7749;49.964;7.890;2023-01-20T12:26:04;9.50;99.90
15296;DHT22;7749;49.964;7.890;2023-01-20T12:28:48;9.50;99.90
15296;DHT22;7749;49.964;7.890;2023-01-20T12:31:19;10.20;99.90
15296;DHT22;7749;49.964;7.890;2023-01-20T12:33:49;10.60;1.00
15296;DHT22;7749;49.964;7.890;2023-01-20T12:36:27;10.20;1.00
15296;DHT22;7749;49.964;7.890;2023-01-20T12:56:01;6.30;1.00
15296;DHT22;7749;49.964;7.890;2023-01-20T13:07:12;7.10;1.00
15296;DHT22;7749;49.964;7.890;2023-01-20T13:10:08;6.90;1.00
15296;DHT22;7749;49.964;7.890;2023-01-20T13:12:47;6.70;1.00
15296;DHT22;7749;49.964;7.890;2023-01-20T13:15:39;6.70;1.00
15296;DHT22;7749;49.964;7.890;2023-01-20T13:18:49;6.80;1.00
15296;DHT22;7749;49.964;7.890;2023-01-20T13:21:19;6.60;93.00
15296;DHT22;7749;49.964;7.890;2023-01-20T13:23:48;6.70;1.00
15296;DHT22;7749;49.964;7.890;2023-01-20T13:26:17;6.50;1.00
15296;DHT22;7749;49.964;7.890;2023-01-20T13:28:53;6.30;1.00
15296;DHT22;7749;49.964;7.890;2023-01-20T13:39:44;5.50;1.00
15296;DHT22;7749;49.964;7.890;2023-01-20T14:00:52;4.70;99.90
15296;DHT22;7749;49.964;7.890;2023-01-20T14:03:29;4.70;49.70
15296;DHT22;7749;49.964;7.890;2023-01-20T14:06:06;4.50;1.00
15296;DHT22;7749;49.964;7.890;2023-01-20T14:08:49;4.50;1.00
15296;DHT22;7749;49.964;7.890;2023-01-20T14:11:20;4.50;99.90
15296;DHT22;7749;49.964;7.890;2023-01-20T14:14:02;4.50;1.00
15296;DHT22;7749;49.964;7.890;2023-01-20T14:19:27;4.50;99.90
15296;DHT22;7749;49.964;7.890;2023-01-20T14:22:00;4.40;99.90
15296;DHT22;7749;49.964;7.890;2023-01-20T14:24:34;4.20;1.00
15296;DHT22;7749;49.964;7.890;2023-01-20T14:27:22;4.10;1.00
15296;DHT22;7749;49.964;7.890;2023-01-20T14:32:41;4.10;1.00
15296;DHT22;7749;49.964;7.890;2023-01-20T14:37:41;4.10;1.00
15296;DHT22;7749;49.964;7.890;2023-01-20T14:43:12;3.90;99.90
15296;DHT22;7749;49.964;7.890;2023-01-20T14:45:42;3.90;99.90
15296;DHT22;7749;49.964;7.890;2023-01-20T14:48:13;3.80;99.90
15296;DHT22;7749;49.964;7.890;2023-01-20T14:50:59;3.80;99.90
15296;DHT22;7749;49.964;7.890;2023-01-20T14:53:29;3.80;1.00
15296;DHT22;7749;49.964;7.890;2023-01-20T14:56:07;3.70;99.90
15296;DHT22;7749;49.964;7.890;2023-01-20T14:58:47;3.70;1.00
15296;DHT22;7749;49.964;7.890;2023-01-20T15:01:24;3.70;1.00
15296;DHT22;7749;49.964;7.890;2023-01-20T15:03:56;3.70;1.00
15296;DHT22;7749;49.964;7.890;2023-01-20T15:06:25;3.70;1.00
15296;DHT22;7749;49.964;7.890;2023-01-20T15:08:53;3.60;1.00
15296;DHT22;7749;49.964;7.890;2023-01-20T15:11:33;3.50;1.00
15296;DHT22;7749;49.964;7.890;2023-01-20T15:21:51;3.50;1.00
15296;DHT22;7749;49.964;7.890;2023-01-20T15:24:31;3.40;1.00
15296;DHT22;7749;49.964;7.890;2023-01-20T15:27:00;3.00;1.00
15296;DHT22;7749;49.964;7.890;2023-01-20T15:29:32;2.80;14.10
15296;DHT22;7749;49.964;7.890;2023-01-20T15:32:10;2.80;41.70
15296;DHT22;7749;49.964;7.890;2023-01-20T15:34:41;2.80;88.30
15296;DHT22;7749;49.964;7.890;2023-01-20T15:37:16;2.80;93.20
15296;DHT22;7749;49.964;7.890;2023-01-20T15:39:44;2.80;93.90
15296;DHT22;7749;49.964;7.890;2023-01-20T15:42:13;2.70;98.90
15296;DHT22;7749;49.964;7.890;2023-01-20T15:44:45;2.70;99.90
15296;DHT22;7749;49.964;7.890;2023-01-20T15:47:19;2.60;99.90
15296;DHT22;7749;49.964;7.890;2023-01-20T15:49:47;2.60;99.90
15296;DHT22;7749;49.964;7.890;2023-01-20T15:52:17;2.60;99.90
15296;DHT22;7749;49.964;7.890;2023-01-20T15:54:45;2.60;99.90
15296;DHT22;7749;49.964;7.890;2023-01-20T15:57:20;2.50;99.90
15296;DHT22;7749;49.964;7.890;2023-01-20T15:59:52;2.30;99.90
15296;DHT22;7749;49.964;7.890;2023-01-20T16:02:22;2.30;99.90
15296;DHT22;7749;49.964;7.890;2023-01-20T16:04:50;2.30;99.90
15296;DHT22;7749;49.964;7.890;2023-01-20T16:07:18;2.30;99.90
15296;DHT22;7749;49.964;7.890;2023-01-20T16:09:47;2.20;99.90
15296;DHT22;7749;49.964;7.890;2023-01-20T16:12:16;2.20;99.90
15296;DHT22;7749;49.964;7.890;2023-01-20T16:14:44;2.20;99.90
15296;DHT22;7749;49.964;7.890;2023-01-20T16:17:14;2.20;99.90
15296;DHT22;7749;49.964;7.890;2023-01-20T16:19:42;2.20;99.90
15296;DHT22;7749;49.964;7.890;2023-01-20T16:22:09;2.10;99.90
15296;DHT22;7749;49.964;7.890;2023-01-20T16:24:37;2.10;99.90
15296;DHT22;7749;49.964;7.890;2023-01-20T16:27:19;2.10;99.90
15296;DHT22;7749;49.964;7.890;2023-01-20T16:29:48;2.10;99.90
15296;DHT22;7749;49.964;7.890;2023-01-20T16:32:16;2.10;99.90
15296;DHT22;7749;49.964;7.890;2023-01-20T16:34:48;2.00;99.90
15296;DHT22;7749;49.964;7.890;2023-01-20T16:37:16;2.00;99.90
15296;DHT22;7749;49.964;7.890;2023-01-20T16:39:43;2.00;99.90
15296;DHT22;7749;49.964;7.890;2023-01-20T16:42:12;2.00;99.90
15296;DHT22;7749;49.964;7.890;2023-01-20T16:44:40;2.00;99.90
15296;DHT22;7749;49.964;7.890;2023-01-20T16:47:08;1.90;99.90
15296;DHT22;7749;49.964;7.890;2023-01-20T16:49:36;1.90;99.90
15296;DHT22;7749;49.964;7.890;2023-01-20T16:52:05;1.90;99.90
15296;DHT22;7749;49.964;7.890;2023-01-20T16:54:32;1.90;99.90
15296;DHT22;7749;49.964;7.890;2023-01-20T16:57:00;2.00;99.90
15296;DHT22;7749;49.964;7.890;2023-01-20T16:59:28;2.00;99.90
15296;DHT22;7749;49.964;7.890;2023-01-20T17:01:55;2.00;99.90
15296;DHT22;7749;49.964;7.890;2023-01-20T17:04:23;1.90;99.90
15296;DHT22;7749;49.964;7.890;2023-01-20T17:06:51;1.90;99.90
15296;DHT22;7749;49.964;7.890;2023-01-20T17:09:19;1.90;99.90
15296;DHT22;7749;49.964;7.890;2023-01-20T17:11:46;1.90;99.90
15296;DHT22;7749;49.964;7.890;2023-01-20T17:14:14;1.90;99.90
15296;DHT22;7749;49.964;7.890;2023-01-20T17:16:42;1.90;99.90
15296;DHT22;7749;49.964;7.890;2023-01-20T17:19:09;1.90;99.90
15296;DHT22;7749;49.964;7.890;2023-01-20T17:21:39;1.90;99.90
15296;DHT22;7749;49.964;7.890;2023-01-20T17:24:09;2.00;99.90
15296;DHT22;7749;49.964;7.890;2023-01-20T17:26:39;1.90;99.90
15296;DHT22;7749;49.964;7.890;2023-01-20T17:29:07;1.90;99.90
15296;DHT22;7749;49.964;7.890;2023-01-20T17:31:35;1.90;99.90
15296;DHT22;7749;49.964;7.890;2023-01-20T17:34:04;1.90;99.90
15296;DHT22;7749;49.964;7.890;2023-01-20T17:36:32;1.90;99.90
15296;DHT22;7749;49.964;7.890;2023-01-20T17:39:02;1.90;99.90
15296;DHT22;7749;49.964;7.890;2023-01-20T17:41:30;1.90;99.90
15296;DHT22;7749;49.964;7.890;2023-01-20T17:44:01;1.90;99.90
15296;DHT22;7749;49.964;7.890;2023-01-20T17:46:30;1.90;99.90
15296;DHT22;7749;49.964;7.890;2023-01-20T17:48:59;2.00;99.90
15296;DHT22;7749;49.964;7.890;2023-01-20T17:51:28;1.90;99.90
15296;DHT22;7749;49.964;7.890;2023-01-20T17:53:56;2.00;99.90
15296;DHT22;7749;49.964;7.890;2023-01-20T17:56:25;1.90;99.90
15296;DHT22;7749;49.964;7.890;2023-01-20T17:58:53;1.90;99.90
15296;DHT22;7749;49.964;7.890;2023-01-20T18:01:25;1.90;99.90
15296;DHT22;7749;49.964;7.890;2023-01-20T18:03:55;1.90;99.90
15296;DHT22;7749;49.964;7.890;2023-01-20T18:06:24;1.90;99.90
15296;DHT22;7749;49.964;7.890;2023-01-20T18:08:57;1.90;99.90
15296;DHT22;7749;49.964;7.890;2023-01-20T18:11:26;1.90;99.90
15296;DHT22;7749;49.964;7.890;2023-01-20T18:13:55;1.80;99.90
15296;DHT22;7749;49.964;7.890;2023-01-20T18:16:27;1.80;99.90
15296;DHT22;7749;49.964;7.890;2023-01-20T18:18:55;1.90;99.90
15296;DHT22;7749;49.964;7.890;2023-01-20T18:21:30;1.90;99.90
15296;DHT22;7749;49.964;7.890;2023-01-20T18:23:59;1.90;99.90
15296;DHT22;7749;49.964;7.890;2023-01-20T18:26:29;1.90;99.90
15296;DHT22;7749;49.964;7.890;2023-01-20T18:28:59;1.90;99.90